sensor_id;sensor_type;location;lat;lon;timestamp;pressure;altitude;pressure_sealevel;temperature;humidity
60725;BME280;59881;36.722;-4.462;2022-09-21T00:01:52;101058.66;;;21.59;85.40
60725;BME280;59881;36.722;-4.462;2022-09-21T00:04:17;101016.75;;;21.41;85.28
60725;BME280;59881;36.722;-4.462;2022-09-21T00:06:43;101039.03;;;21.50;85.50
60725;BME280;59881;36.722;-4.462;2022-09-21T00:09:10;100966.19;;;20.96;85.73
60725;BME280;59881;36.722;-4.462;2022-09-21T00:11:35;101025.75;;;21.40;85.76
60725;BME280;59881;36.722;-4.462;2022-09-21T00:14:06;100997.72;;;21.18;86.02
60725;BME280;59881;36.722;-4.462;2022-09-21T00:16:32;100906.47;;;20.53;86.48
60725;BME280;59881;36.722;-4.462;2022-09-21T00:18:59;100833.56;;;20.08;86.92
60725;BME280;59881;36.722;-4.462;2022-09-21T00:21:25;100868.72;;;20.21;87.36
60725;BME280;59881;36.722;-4.462;2022-09-21T00:23:52;100829.50;;;19.96;87.65
60725;BME280;59881;36.722;-4.462;2022-09-21T00:26:23;101006.06;;;20.99;87.86
60725;BME280;59881;36.722;-4.462;2022-09-21T00:28:54;101019.47;;;21.07;87.62
60725;BME280;59881;36.722;-4.462;2022-09-21T00:31:21;101039.91;;;21.16;87.68
60725;BME280;59881;36.722;-4.462;2022-09-21T00:33:46;100723.31;;;19.19;87.48
60725;BME280;59881;36.722;-4.462;2022-09-21T00:36:14;100967.31;;;20.77;87.74
60725;BME280;59881;36.722;-4.462;2022-09-21T00:38:44;101031.72;;;21.18;87.84
60725;BME280;59881;36.722;-4.462;2022-09-21T00:41:13;101035.75;;;21.22;87.67
60725;BME280;59881;36.722;-4.462;2022-09-21T00:43:43;100966.47;;;20.76;87.20
60725;BME280;59881;36.722;-4.462;2022-09-21T00:48:41;100903.94;;;20.51;86.79
60725;BME280;59881;36.722;-4.462;2022-09-21T00:51:07;101052.72;;;21.39;86.23
60725;BME280;59881;36.722;-4.462;2022-09-21T00:53:35;100953.28;;;20.83;85.22
60725;BME280;59881;36.722;-4.462;2022-09-21T00:56:01;101019.38;;;21.33;84.58
60725;BME280;59881;36.722;-4.462;2022-09-21T00:58:32;101028.88;;;21.27;83.62
60725;BME280;59881;36.722;-4.462;2022-09-21T01:01:00;101010.97;;;21.20;83.23
60725;BME280;59881;36.722;-4.462;2022-09-21T01:03:26;100969.13;;;20.68;82.61
60725;BME280;59881;36.722;-4.462;2022-09-21T01:05:55;100922.25;;;19.95;82.29
60725;BME280;59881;36.722;-4.462;2022-09-21T01:08:22;100881.63;;;20.26;82.13
60725;BME280;59881;36.722;-4.462;2022-09-21T01:17:05;100970.00;;;20.77;81.74
60725;BME280;59881;36.722;-4.462;2022-09-21T01:25:03;100996.09;;;20.83;81.16
60725;BME280;59881;36.722;-4.462;2022-09-21T01:30:19;100922.66;;;20.09;80.99
60725;BME280;59881;36.722;-4.462;2022-09-21T01:32:58;100898.59;;;20.09;81.11
60725;BME280;59881;36.722;-4.462;2022-09-21T01:35:36;100981.22;;;20.54;81.45
60725;BME280;59881;36.722;-4.462;2022-09-21T01:38:05;101003.59;;;20.71;81.31
60725;BME280;59881;36.722;-4.462;2022-09-21T01:40:41;101009.31;;;20.76;81.57
60725;BME280;59881;36.722;-4.462;2022-09-21T01:43:12;101006.13;;;20.81;81.15
60725;BME280;59881;36.722;-4.462;2022-09-21T01:45:46;100948.78;;;20.49;81.02
60725;BME280;59881;36.722;-4.462;2022-09-21T01:48:13;101018.75;;;20.88;80.22
60725;BME280;59881;36.722;-4.462;2022-09-21T01:50:46;100931.84;;;20.40;80.05
60725;BME280;59881;36.722;-4.462;2022-09-21T01:54:10;101010.38;;;20.92;80.17
60725;BME280;59881;36.722;-4.462;2022-09-21T01:59:06;100894.94;;;20.18;79.90
60725;BME280;59881;36.722;-4.462;2022-09-21T02:01:38;100997.50;;;20.95;79.88
60725;BME280;59881;36.722;-4.462;2022-09-21T02:04:09;100990.81;;;20.99;79.96
60725;BME280;59881;36.722;-4.462;2022-09-21T02:06:38;100669.97;;;19.01;79.74
60725;BME280;59881;36.722;-4.462;2022-09-21T02:09:04;100849.81;;;20.23;79.38
60725;BME280;59881;36.722;-4.462;2022-09-21T02:11:30;100988.34;;;21.06;79.17
60725;BME280;59881;36.722;-4.462;2022-09-21T02:13:55;100898.81;;;20.58;78.48
60725;BME280;59881;36.722;-4.462;2022-09-21T02:16:36;100878.66;;;20.45;78.09
60725;BME280;59881;36.722;-4.462;2022-09-21T02:22:01;100968.56;;;20.99;77.01
60725;BME280;59881;36.722;-4.462;2022-09-21T02:24:41;100967.88;;;20.97;76.91
60725;BME280;59881;36.722;-4.462;2022-09-21T02:29:49;100950.97;;;20.96;76.50
60725;BME280;59881;36.722;-4.462;2022-09-21T02:33:04;100948.28;;;20.96;76.76
60725;BME280;59881;36.722;-4.462;2022-09-21T02:38:21;100946.47;;;20.97;77.94
60725;BME280;59881;36.722;-4.462;2022-09-21T02:46:20;100834.97;;;20.37;78.02
60725;BME280;59881;36.722;-4.462;2022-09-21T02:48:52;100928.69;;;20.96;78.62
60725;BME280;59881;36.722;-4.462;2022-09-21T02:51:25;100926.19;;;20.94;78.79
60725;BME280;59881;36.722;-4.462;2022-09-21T02:53:52;100826.59;;;20.23;79.04
60725;BME280;59881;36.722;-4.462;2022-09-21T02:56:20;100840.88;;;20.40;79.15
60725;BME280;59881;36.722;-4.462;2022-09-21T02:58:49;100673.84;;;19.33;79.58
60725;BME280;59881;36.722;-4.462;2022-09-21T03:01:19;100781.34;;;19.96;79.79
60725;BME280;59881;36.722;-4.462;2022-09-21T03:03:45;100778.66;;;19.88;79.41
60725;BME280;59881;36.722;-4.462;2022-09-21T03:06:10;100894.75;;;20.54;79.56
60725;BME280;59881;36.722;-4.462;2022-09-21T03:08:36;100914.25;;;20.64;79.66
60725;BME280;59881;36.722;-4.462;2022-09-21T03:11:01;100928.78;;;20.61;79.63
60725;BME280;59881;36.722;-4.462;2022-09-21T03:13:27;100934.81;;;20.63;79.97
60725;BME280;59881;36.722;-4.462;2022-09-21T03:16:00;100976.97;;;20.70;79.70
60725;BME280;59881;36.722;-4.462;2022-09-21T03:18:26;100940.72;;;20.75;79.80
60725;BME280;59881;36.722;-4.462;2022-09-21T03:20:51;100832.59;;;20.17;79.14
60725;BME280;59881;36.722;-4.462;2022-09-21T03:23:17;100948.25;;;20.80;79.03
60725;BME280;59881;36.722;-4.462;2022-09-21T03:25:44;100919.41;;;20.65;78.95
60725;BME280;59881;36.722;-4.462;2022-09-21T03:28:13;100949.06;;;20.80;78.85
60725;BME280;59881;36.722;-4.462;2022-09-21T03:30:39;100963.16;;;20.82;78.97
60725;BME280;59881;36.722;-4.462;2022-09-21T03:33:05;100915.34;;;20.53;78.98
60725;BME280;59881;36.722;-4.462;2022-09-21T03:35:31;100889.84;;;20.41;78.98
60725;BME280;59881;36.722;-4.462;2022-09-21T03:38:00;100881.69;;;20.42;79.29
60725;BME280;59881;36.722;-4.462;2022-09-21T03:40:27;100855.16;;;20.23;79.44
60725;BME280;59881;36.722;-4.462;2022-09-21T03:42:53;100954.13;;;20.83;79.38
60725;BME280;59881;36.722;-4.462;2022-09-21T03:45:20;100957.59;;;20.76;79.34
60725;BME280;59881;36.722;-4.462;2022-09-21T03:48:00;100946.28;;;20.56;79.75
60725;BME280;59881;36.722;-4.462;2022-09-21T03:50:27;100949.72;;;20.66;79.83
60725;BME280;59881;36.722;-4.462;2022-09-21T03:52:54;100842.66;;;19.89;79.74
60725;BME280;59881;36.722;-4.462;2022-09-21T03:55:20;100907.50;;;20.25;80.11
60725;BME280;59881;36.722;-4.462;2022-09-21T03:57:46;100941.31;;;20.61;79.90
60725;BME280;59881;36.722;-4.462;2022-09-21T04:00:11;100863.28;;;19.71;79.54
60725;BME280;59881;36.722;-4.462;2022-09-21T04:02:37;100944.44;;;20.56;79.49
60725;BME280;59881;36.722;-4.462;2022-09-21T04:05:11;100945.75;;;20.52;79.96
60725;BME280;59881;36.722;-4.462;2022-09-21T04:07:39;100946.09;;;20.49;80.20
60725;BME280;59881;36.722;-4.462;2022-09-21T04:10:06;100952.59;;;20.46;79.99
60725;BME280;59881;36.722;-4.462;2022-09-21T04:12:33;100950.25;;;20.43;80.20
60725;BME280;59881;36.722;-4.462;2022-09-21T04:15:03;100893.81;;;19.94;80.39
60725;BME280;59881;36.722;-4.462;2022-09-21T04:17:32;100960.44;;;20.40;80.72
60725;BME280;59881;36.722;-4.462;2022-09-21T04:19:58;100989.34;;;20.36;80.49
60725;BME280;59881;36.722;-4.462;2022-09-21T04:22:24;100920.81;;;19.65;80.69
60725;BME280;59881;36.722;-4.462;2022-09-21T04:24:50;100973.63;;;20.33;80.68
60725;BME280;59881;36.722;-4.462;2022-09-21T04:27:15;100715.03;;;18.78;80.97
60725;BME280;59881;36.722;-4.462;2022-09-21T04:29:42;100933.41;;;19.91;80.85
60725;BME280;59881;36.722;-4.462;2022-09-21T04:32:09;100948.03;;;20.04;80.96
60725;BME280;59881;36.722;-4.462;2022-09-21T04:34:35;100879.75;;;19.66;81.00
60725;BME280;59881;36.722;-4.462;2022-09-21T04:37:05;100967.09;;;20.01;80.76
60725;BME280;59881;36.722;-4.462;2022-09-21T04:39:33;100935.69;;;19.85;80.80
60725;BME280;59881;36.722;-4.462;2022-09-21T04:41:58;100803.84;;;19.07;80.14
60725;BME280;59881;36.722;-4.462;2022-09-21T04:44:24;100988.34;;;20.37;80.09
60725;BME280;59881;36.722;-4.462;2022-09-21T04:46:49;100863.50;;;19.59;79.49
60725;BME280;59881;36.722;-4.462;2022-09-21T04:49:15;100929.44;;;19.59;79.28
60725;BME280;59881;36.722;-4.462;2022-09-21T04:51:40;101013.63;;;20.43;79.14
60725;BME280;59881;36.722;-4.462;2022-09-21T04:54:06;100871.44;;;19.69;78.50
60725;BME280;59881;36.722;-4.462;2022-09-21T04:56:32;100989.38;;;20.44;78.00
60725;BME280;59881;36.722;-4.462;2022-09-21T04:58:58;100995.28;;;20.48;77.57
60725;BME280;59881;36.722;-4.462;2022-09-21T05:01:23;100994.94;;;20.51;77.11
60725;BME280;59881;36.722;-4.462;2022-09-21T05:03:49;100983.75;;;20.56;76.63
60725;BME280;59881;36.722;-4.462;2022-09-21T05:06:14;100920.47;;;20.12;76.46
60725;BME280;59881;36.722;-4.462;2022-09-21T05:08:40;101009.91;;;20.62;75.72
60725;BME280;59881;36.722;-4.462;2022-09-21T05:11:24;100942.19;;;20.35;75.05
60725;BME280;59881;36.722;-4.462;2022-09-21T05:13:50;100974.91;;;20.55;74.89
60725;BME280;59881;36.722;-4.462;2022-09-21T05:16:16;100974.44;;;20.60;74.38
60725;BME280;59881;36.722;-4.462;2022-09-21T05:18:43;100950.75;;;20.47;74.04
60725;BME280;59881;36.722;-4.462;2022-09-21T05:21:10;100936.34;;;20.40;73.91
60725;BME280;59881;36.722;-4.462;2022-09-21T05:23:36;101013.00;;;20.75;73.96
60725;BME280;59881;36.722;-4.462;2022-09-21T05:26:02;100943.22;;;20.42;74.23
60725;BME280;59881;36.722;-4.462;2022-09-21T05:28:28;101013.81;;;20.76;74.34
60725;BME280;59881;36.722;-4.462;2022-09-21T05:33:39;101001.28;;;20.76;74.08
60725;BME280;59881;36.722;-4.462;2022-09-21T05:38:55;100900.84;;;20.21;73.50
60725;BME280;59881;36.722;-4.462;2022-09-21T05:41:22;100952.47;;;20.48;73.56
60725;BME280;59881;36.722;-4.462;2022-09-21T05:43:47;100977.66;;;20.63;73.34
60725;BME280;59881;36.722;-4.462;2022-09-21T05:48:51;100990.44;;;20.86;73.23
60725;BME280;59881;36.722;-4.462;2022-09-21T05:51:30;100993.97;;;20.86;72.99
60725;BME280;59881;36.722;-4.462;2022-09-21T05:54:15;100990.44;;;20.86;72.92
60725;BME280;59881;36.722;-4.462;2022-09-21T05:56:57;101012.03;;;20.84;73.33
60725;BME280;59881;36.722;-4.462;2022-09-21T06:05:15;100991.63;;;20.92;72.98
60725;BME280;59881;36.722;-4.462;2022-09-21T06:07:41;100977.22;;;20.84;73.13
60725;BME280;59881;36.722;-4.462;2022-09-21T06:10:13;100995.44;;;20.81;73.39
60725;BME280;59881;36.722;-4.462;2022-09-21T06:12:40;100965.41;;;20.61;73.92
60725;BME280;59881;36.722;-4.462;2022-09-21T06:15:07;100990.06;;;20.73;74.08
60725;BME280;59881;36.722;-4.462;2022-09-21T06:17:34;100970.38;;;20.56;74.57
60725;BME280;59881;36.722;-4.462;2022-09-21T06:20:00;100929.50;;;20.37;74.95
60725;BME280;59881;36.722;-4.462;2022-09-21T06:22:27;100988.22;;;20.73;75.10
60725;BME280;59881;36.722;-4.462;2022-09-21T06:24:52;100967.59;;;20.57;75.13
60725;BME280;59881;36.722;-4.462;2022-09-21T06:27:19;101006.63;;;20.76;75.27
60725;BME280;59881;36.722;-4.462;2022-09-21T06:29:44;100873.72;;;19.90;75.41
60725;BME280;59881;36.722;-4.462;2022-09-21T06:32:10;101007.97;;;20.80;75.60
60725;BME280;59881;36.722;-4.462;2022-09-21T06:34:35;101008.34;;;20.85;75.79
60725;BME280;59881;36.722;-4.462;2022-09-21T06:37:02;101014.75;;;20.93;75.81
60725;BME280;59881;36.722;-4.462;2022-09-21T06:39:28;101028.47;;;20.98;75.69
60725;BME280;59881;36.722;-4.462;2022-09-21T06:41:53;101012.63;;;21.13;75.56
60725;BME280;59881;36.722;-4.462;2022-09-21T06:44:19;101009.72;;;21.57;75.46
60725;BME280;59881;36.722;-4.462;2022-09-21T06:46:44;101008.00;;;22.21;74.07
60725;BME280;59881;36.722;-4.462;2022-09-21T06:49:10;101007.06;;;22.78;71.96
60725;BME280;59881;36.722;-4.462;2022-09-21T06:51:36;100925.50;;;23.02;69.69
60725;BME280;59881;36.722;-4.462;2022-09-21T06:54:01;101001.81;;;24.08;66.91
60725;BME280;59881;36.722;-4.462;2022-09-21T06:56:27;100820.75;;;23.70;63.99
60725;BME280;59881;36.722;-4.462;2022-09-21T06:58:53;101001.84;;;25.34;61.64
60725;BME280;59881;36.722;-4.462;2022-09-21T07:01:19;100948.16;;;26.17;58.63
60725;BME280;59881;36.722;-4.462;2022-09-21T07:03:48;100958.22;;;27.26;55.65
60725;BME280;59881;36.722;-4.462;2022-09-21T07:06:14;100906.00;;;27.65;52.58
60725;BME280;59881;36.722;-4.462;2022-09-21T07:08:43;100920.97;;;28.01;50.66
60725;BME280;59881;36.722;-4.462;2022-09-21T07:11:10;100968.56;;;28.49;49.98
60725;BME280;59881;36.722;-4.462;2022-09-21T07:13:36;100919.56;;;28.51;48.87
60725;BME280;59881;36.722;-4.462;2022-09-21T07:16:03;100812.81;;;28.52;47.54
60725;BME280;59881;36.722;-4.462;2022-09-21T07:18:32;100966.69;;;30.08;46.26
60725;BME280;59881;36.722;-4.462;2022-09-21T07:21:08;100966.13;;;30.62;44.37
60725;BME280;59881;36.722;-4.462;2022-09-21T07:23:34;100964.00;;;31.12;43.50
60725;BME280;59881;36.722;-4.462;2022-09-21T07:26:02;100964.63;;;31.68;41.64
60725;BME280;59881;36.722;-4.462;2022-09-21T07:28:28;100965.56;;;32.21;40.37
60725;BME280;59881;36.722;-4.462;2022-09-21T07:30:55;100932.47;;;32.41;39.02
60725;BME280;59881;36.722;-4.462;2022-09-21T07:33:21;100967.81;;;33.17;37.73
60725;BME280;59881;36.722;-4.462;2022-09-21T07:35:53;100935.00;;;33.46;36.75
60725;BME280;59881;36.722;-4.462;2022-09-21T07:38:20;100975.84;;;34.08;35.65
60725;BME280;59881;36.722;-4.462;2022-09-21T07:40:46;100933.34;;;34.00;34.87
60725;BME280;59881;36.722;-4.462;2022-09-21T07:43:12;100899.53;;;34.24;34.44
60725;BME280;59881;36.722;-4.462;2022-09-21T07:45:38;100922.53;;;34.99;33.49
60725;BME280;59881;36.722;-4.462;2022-09-21T07:48:04;100977.09;;;36.08;31.76
60725;BME280;59881;36.722;-4.462;2022-09-21T07:50:31;100925.66;;;36.35;30.74
60725;BME280;59881;36.722;-4.462;2022-09-21T07:52:59;100923.09;;;36.71;30.33
60725;BME280;59881;36.722;-4.462;2022-09-21T07:55:26;100890.44;;;37.11;29.90
60725;BME280;59881;36.722;-4.462;2022-09-21T07:57:52;100964.31;;;38.04;28.90
60725;BME280;59881;36.722;-4.462;2022-09-21T08:00:36;100954.75;;;38.57;28.37
60725;BME280;59881;36.722;-4.462;2022-09-21T08:03:03;100982.53;;;39.10;27.20
60725;BME280;59881;36.722;-4.462;2022-09-21T08:05:29;100951.66;;;39.13;27.26
60725;BME280;59881;36.722;-4.462;2022-09-21T08:07:56;100822.03;;;38.65;26.91
60725;BME280;59881;36.722;-4.462;2022-09-21T08:10:23;100936.63;;;39.64;26.49
60725;BME280;59881;36.722;-4.462;2022-09-21T08:12:50;100920.13;;;39.88;26.32
60725;BME280;59881;36.722;-4.462;2022-09-21T08:15:15;100907.97;;;39.89;25.71
60725;BME280;59881;36.722;-4.462;2022-09-21T08:17:42;100980.41;;;40.67;25.35
60725;BME280;59881;36.722;-4.462;2022-09-21T08:20:08;100938.44;;;41.22;24.56
60725;BME280;59881;36.722;-4.462;2022-09-21T08:22:34;100987.44;;;41.95;23.61
60725;BME280;59881;36.722;-4.462;2022-09-21T08:24:59;100996.91;;;40.29;25.56
60725;BME280;59881;36.722;-4.462;2022-09-21T08:27:25;100957.22;;;38.58;26.92
60725;BME280;59881;36.722;-4.462;2022-09-21T08:29:50;100924.84;;;36.30;29.34
60725;BME280;59881;36.722;-4.462;2022-09-21T08:32:16;101006.34;;;35.27;31.57
60725;BME280;59881;36.722;-4.462;2022-09-21T08:34:42;101006.97;;;34.63;33.17
60725;BME280;59881;36.722;-4.462;2022-09-21T08:37:08;100994.63;;;35.10;32.90
60725;BME280;59881;36.722;-4.462;2022-09-21T08:39:33;101022.47;;;35.88;31.69
60725;BME280;59881;36.722;-4.462;2022-09-21T08:42:19;100895.25;;;35.47;31.53
60725;BME280;59881;36.722;-4.462;2022-09-21T08:44:56;101008.72;;;36.73;31.25
60725;BME280;59881;36.722;-4.462;2022-09-21T08:50:34;101011.72;;;36.77;30.72
60725;BME280;59881;36.722;-4.462;2022-09-21T08:53:09;101015.84;;;36.69;31.47
60725;BME280;59881;36.722;-4.462;2022-09-21T08:55:36;101011.50;;;36.31;31.54
60725;BME280;59881;36.722;-4.462;2022-09-21T08:58:01;101027.94;;;35.88;32.11
60725;BME280;59881;36.722;-4.462;2022-09-21T09:00:31;100938.56;;;35.12;32.83
60725;BME280;59881;36.722;-4.462;2022-09-21T09:03:12;101024.28;;;35.45;33.46
60725;BME280;59881;36.722;-4.462;2022-09-21T09:05:53;101020.25;;;35.85;32.02
60725;BME280;59881;36.722;-4.462;2022-09-21T09:11:30;101036.72;;;35.58;32.15
60725;BME280;59881;36.722;-4.462;2022-09-21T09:14:24;101040.47;;;35.19;32.62
60725;BME280;59881;36.722;-4.462;2022-09-21T09:22:24;101033.50;;;33.27;35.61
60725;BME280;59881;36.722;-4.462;2022-09-21T09:24:55;101034.13;;;33.46;35.60
60725;BME280;59881;36.722;-4.462;2022-09-21T09:27:41;101042.28;;;33.75;35.29
60725;BME280;59881;36.722;-4.462;2022-09-21T09:30:23;101038.66;;;33.86;34.88
60725;BME280;59881;36.722;-4.462;2022-09-21T09:33:30;101038.13;;;34.62;35.73
60725;BME280;59881;36.722;-4.462;2022-09-21T09:36:02;101041.16;;;36.86;33.36
60725;BME280;59881;36.722;-4.462;2022-09-21T09:38:37;101025.97;;;40.21;28.39
60725;BME280;59881;36.722;-4.462;2022-09-21T09:50:10;101027.63;;;46.80;19.16
60725;BME280;59881;36.722;-4.462;2022-09-21T09:52:37;101023.38;;;47.49;18.27
60725;BME280;59881;36.722;-4.462;2022-09-21T09:55:17;101020.59;;;47.95;18.70
60725;BME280;59881;36.722;-4.462;2022-09-21T09:57:45;101008.13;;;48.41;17.25
60725;BME280;59881;36.722;-4.462;2022-09-21T10:00:16;101028.88;;;48.40;17.19
60725;BME280;59881;36.722;-4.462;2022-09-21T10:02:51;101023.94;;;48.62;17.12
60725;BME280;59881;36.722;-4.462;2022-09-21T10:05:34;101010.88;;;48.78;16.60
60725;BME280;59881;36.722;-4.462;2022-09-21T10:08:03;100998.47;;;48.26;16.46
60725;BME280;59881;36.722;-4.462;2022-09-21T10:18:18;100961.38;;;48.66;16.55
60725;BME280;59881;36.722;-4.462;2022-09-21T10:21:00;101001.91;;;48.73;17.17
60725;BME280;59881;36.722;-4.462;2022-09-21T10:23:28;101009.72;;;49.07;16.80
60725;BME280;59881;36.722;-4.462;2022-09-21T10:26:03;101006.16;;;48.82;17.43
60725;BME280;59881;36.722;-4.462;2022-09-21T10:28:30;100935.22;;;48.46;17.16
60725;BME280;59881;36.722;-4.462;2022-09-21T10:31:26;100998.22;;;48.97;17.10
60725;BME280;59881;36.722;-4.462;2022-09-21T10:34:14;100957.41;;;48.02;17.63
60725;BME280;59881;36.722;-4.462;2022-09-21T10:36:48;100997.44;;;47.36;18.72
60725;BME280;59881;36.722;-4.462;2022-09-21T10:44:19;100850.78;;;37.83;27.33
60725;BME280;59881;36.722;-4.462;2022-09-21T10:46:46;101020.44;;;35.14;33.35
60725;BME280;59881;36.722;-4.462;2022-09-21T10:49:32;101025.88;;;32.60;37.71
60725;BME280;59881;36.722;-4.462;2022-09-21T10:52:00;101021.44;;;31.23;41.41
60725;BME280;59881;36.722;-4.462;2022-09-21T10:54:29;101021.34;;;30.44;42.91
60725;BME280;59881;36.722;-4.462;2022-09-21T10:57:02;101018.94;;;29.85;44.90
60725;BME280;59881;36.722;-4.462;2022-09-21T10:59:32;101006.44;;;29.21;46.89
60725;BME280;59881;36.722;-4.462;2022-09-21T11:02:01;101035.38;;;28.82;48.53
60725;BME280;59881;36.722;-4.462;2022-09-21T11:07:06;100989.47;;;28.15;49.95
60725;BME280;59881;36.722;-4.462;2022-09-21T11:09:43;100955.72;;;27.64;49.42
60725;BME280;59881;36.722;-4.462;2022-09-21T11:20:24;101026.75;;;28.00;50.49
60725;BME280;59881;36.722;-4.462;2022-09-21T11:23:10;100999.28;;;28.03;49.30
60725;BME280;59881;36.722;-4.462;2022-09-21T11:25:45;101003.44;;;27.92;49.95
60725;BME280;59881;36.722;-4.462;2022-09-21T11:39:57;100996.47;;;27.23;52.04
60725;BME280;59881;36.722;-4.462;2022-09-21T11:48:01;100999.16;;;27.23;53.72
60725;BME280;59881;36.722;-4.462;2022-09-21T12:05:10;100973.72;;;26.97;51.21
60725;BME280;59881;36.722;-4.462;2022-09-21T12:10:37;100985.13;;;26.93;51.99
60725;BME280;59881;36.722;-4.462;2022-09-21T12:13:18;100974.94;;;26.88;52.72
60725;BME280;59881;36.722;-4.462;2022-09-21T12:18:40;100975.22;;;26.58;51.49
60725;BME280;59881;36.722;-4.462;2022-09-21T12:21:41;100982.16;;;26.39;54.41
60725;BME280;59881;36.722;-4.462;2022-09-21T12:24:28;100826.53;;;25.55;55.03
60725;BME280;59881;36.722;-4.462;2022-09-21T12:26:58;100972.66;;;26.50;54.18
60725;BME280;59881;36.722;-4.462;2022-09-21T12:32:21;100868.69;;;25.91;53.49
60725;BME280;59881;36.722;-4.462;2022-09-21T12:34:57;100945.91;;;26.55;54.11
60725;BME280;59881;36.722;-4.462;2022-09-21T12:37:32;100940.97;;;26.72;53.49
60725;BME280;59881;36.722;-4.462;2022-09-21T12:42:47;100930.00;;;26.80;51.91
60725;BME280;59881;36.722;-4.462;2022-09-21T12:45:23;100931.44;;;26.83;52.53
60725;BME280;59881;36.722;-4.462;2022-09-21T12:52:57;100879.91;;;26.36;50.24
60725;BME280;59881;36.722;-4.462;2022-09-21T12:55:33;100907.94;;;26.70;50.25
60725;BME280;59881;36.722;-4.462;2022-09-21T12:59:05;100910.84;;;26.69;51.46
60725;BME280;59881;36.722;-4.462;2022-09-21T13:09:18;100916.84;;;26.64;52.45
60725;BME280;59881;36.722;-4.462;2022-09-21T13:11:53;100865.06;;;26.60;52.95
60725;BME280;59881;36.722;-4.462;2022-09-21T13:14:23;100848.47;;;26.63;52.84
60725;BME280;59881;36.722;-4.462;2022-09-21T13:16:57;100885.09;;;26.86;52.20
60725;BME280;59881;36.722;-4.462;2022-09-21T13:19:27;100763.09;;;26.14;51.05
60725;BME280;59881;36.722;-4.462;2022-09-21T13:22:18;100870.78;;;26.86;50.66
60725;BME280;59881;36.722;-4.462;2022-09-21T13:24:57;100791.41;;;26.38;51.27
60725;BME280;59881;36.722;-4.462;2022-09-21T13:30:38;100859.72;;;26.87;51.89
60725;BME280;59881;36.722;-4.462;2022-09-21T13:38:33;100828.34;;;26.79;51.55
60725;BME280;59881;36.722;-4.462;2022-09-21T13:49:16;100826.47;;;26.87;50.77
60725;BME280;59881;36.722;-4.462;2022-09-21T13:54:37;100747.56;;;26.36;49.97
60725;BME280;59881;36.722;-4.462;2022-09-21T14:02:33;100790.28;;;26.94;49.67
60725;BME280;59881;36.722;-4.462;2022-09-21T14:05:06;100790.28;;;26.94;51.02
60725;BME280;59881;36.722;-4.462;2022-09-21T14:07:33;100795.09;;;26.86;51.47
60725;BME280;59881;36.722;-4.462;2022-09-21T14:10:03;100760.75;;;26.59;52.10
60725;BME280;59881;36.722;-4.462;2022-09-21T14:12:49;100755.50;;;26.45;52.42
60725;BME280;59881;36.722;-4.462;2022-09-21T14:21:08;100796.34;;;26.15;54.03
60725;BME280;59881;36.722;-4.462;2022-09-21T14:23:34;100796.94;;;26.10;54.35
60725;BME280;59881;36.722;-4.462;2022-09-21T14:26:19;100707.16;;;25.47;53.97
60725;BME280;59881;36.722;-4.462;2022-09-21T14:28:49;100785.84;;;25.92;53.89
60725;BME280;59881;36.722;-4.462;2022-09-21T14:31:19;100761.84;;;25.69;54.32
60725;BME280;59881;36.722;-4.462;2022-09-21T14:33:52;100717.69;;;25.42;54.89
60725;BME280;59881;36.722;-4.462;2022-09-21T14:36:32;100751.44;;;25.66;53.92
60725;BME280;59881;36.722;-4.462;2022-09-21T14:39:04;100780.38;;;25.78;54.88
60725;BME280;59881;36.722;-4.462;2022-09-21T14:41:37;100772.41;;;25.64;56.20
60725;BME280;59881;36.722;-4.462;2022-09-21T14:44:04;100787.91;;;25.55;57.50
60725;BME280;59881;36.722;-4.462;2022-09-21T14:50:16;100775.81;;;25.44;57.21
60725;BME280;59881;36.722;-4.462;2022-09-21T14:58:23;100919.00;;;25.28;58.34
60725;BME280;59881;36.722;-4.462;2022-09-21T15:00:52;100780.09;;;25.32;58.72
60725;BME280;59881;36.722;-4.462;2022-09-21T15:12:14;100796.31;;;25.17;62.49
60725;BME280;59881;36.722;-4.462;2022-09-21T15:14:46;100749.94;;;24.93;62.41
60725;BME280;59881;36.722;-4.462;2022-09-21T15:17:27;100722.53;;;24.68;62.63
60725;BME280;59881;36.722;-4.462;2022-09-21T15:19:57;100751.03;;;24.77;63.25
60725;BME280;59881;36.722;-4.462;2022-09-21T15:22:25;100708.44;;;24.45;64.86
60725;BME280;59881;36.722;-4.462;2022-09-21T15:24:57;100783.44;;;24.84;65.32
60725;BME280;59881;36.722;-4.462;2022-09-21T15:27:29;100781.56;;;24.85;65.69
60725;BME280;59881;36.722;-4.462;2022-09-21T15:29:59;100772.19;;;24.81;65.22
60725;BME280;59881;36.722;-4.462;2022-09-21T15:32:41;100759.69;;;24.73;65.12
60725;BME280;59881;36.722;-4.462;2022-09-21T15:37:45;100790.78;;;24.97;64.45
60725;BME280;59881;36.722;-4.462;2022-09-21T15:40:20;100778.16;;;24.97;65.38
60725;BME280;59881;36.722;-4.462;2022-09-21T15:43:02;100780.03;;;25.04;64.37
60725;BME280;59881;36.722;-4.462;2022-09-21T15:45:50;100852.06;;;25.10;63.83
60725;BME280;59881;36.722;-4.462;2022-09-21T15:48:17;100239.63;;;21.18;62.38
60725;BME280;59881;36.722;-4.462;2022-09-21T15:50:46;100690.22;;;24.68;61.61
60725;BME280;59881;36.722;-4.462;2022-09-21T15:53:24;100784.28;;;25.13;61.67
60725;BME280;59881;36.722;-4.462;2022-09-21T15:55:50;100801.59;;;25.04;60.34
60725;BME280;59881;36.722;-4.462;2022-09-21T15:58:29;100788.41;;;24.87;60.70
60725;BME280;59881;36.722;-4.462;2022-09-21T16:01:00;100738.16;;;24.51;60.63
60725;BME280;59881;36.722;-4.462;2022-09-21T16:03:27;100563.75;;;23.46;60.97
60725;BME280;59881;36.722;-4.462;2022-09-21T16:05:55;100726.81;;;24.41;61.66
60725;BME280;59881;36.722;-4.462;2022-09-21T16:08:34;100795.47;;;24.88;62.92
60725;BME280;59881;36.722;-4.462;2022-09-21T16:11:18;100797.72;;;24.85;63.70
60725;BME280;59881;36.722;-4.462;2022-09-21T16:13:46;100797.09;;;24.83;64.76
60725;BME280;59881;36.722;-4.462;2022-09-21T16:16:30;100706.00;;;24.07;65.71
60725;BME280;59881;36.722;-4.462;2022-09-21T16:18:57;100727.09;;;24.25;64.83